createdAt,value
2023-01-08T00:00:32.504Z,12.60
2023-01-08T00:10:57.350Z,12.40
2023-01-08T00:21:20.590Z,12.30
2023-01-08T00:31:43.257Z,12.30
2023-01-08T00:42:05.243Z,12.20
2023-01-08T00:52:31.290Z,12.00
2023-01-08T01:02:53.830Z,12.00
2023-01-08T01:13:16.436Z,11.90
2023-01-08T01:23:37.600Z,11.90
2023-01-08T01:34:00.533Z,11.80
2023-01-08T01:44:41.773Z,11.70
2023-01-08T01:55:07.013Z,11.50
2023-01-08T02:05:34.518Z,11.40
2023-01-08T02:16:02.310Z,11.30
2023-01-08T02:26:28.869Z,11.10
2023-01-08T02:36:52.934Z,10.90
2023-01-08T02:47:24.848Z,10.80
2023-01-08T02:57:47.316Z,10.70
2023-01-08T03:08:11.148Z,10.70
2023-01-08T03:18:36.610Z,10.70
2023-01-08T03:29:00.245Z,11.00
2023-01-08T03:39:27.093Z,10.90
2023-01-08T03:49:51.448Z,10.80
2023-01-08T04:00:16.401Z,10.70
2023-01-08T04:10:39.062Z,10.90
2023-01-08T04:21:01.331Z,11.00
2023-01-08T04:31:24.227Z,11.00
2023-01-08T04:41:45.871Z,10.90
2023-01-08T04:52:08.726Z,10.80
2023-01-08T05:02:31.774Z,10.80
2023-01-08T05:12:59.553Z,11.00
2023-01-08T05:23:20.818Z,11.00
2023-01-08T05:33:44.769Z,11.00
2023-01-08T05:44:06.392Z,10.80
2023-01-08T05:54:29.348Z,11.00
2023-01-08T06:04:51.960Z,11.10
2023-01-08T06:15:14.996Z,11.00
2023-01-08T06:25:36.329Z,11.10
2023-01-08T06:36:04.341Z,11.20
2023-01-08T06:46:27.067Z,11.40
2023-01-08T06:56:54.091Z,11.90
2023-01-08T07:07:16.719Z,12.10
2023-01-08T07:17:39.688Z,12.20
2023-01-08T07:28:01.986Z,12.30
2023-01-08T07:38:26.811Z,12.40
2023-01-08T07:48:49.695Z,12.40
2023-01-08T07:59:13.001Z,12.30
2023-01-08T08:09:36.747Z,12.30
2023-01-08T08:19:59.958Z,12.30
2023-01-08T08:30:21.952Z,12.40
2023-01-08T08:40:44.891Z,12.70
2023-01-08T08:51:06.922Z,13.00
2023-01-08T09:01:31.176Z,13.00
2023-01-08T09:11:53.374Z,13.20
2023-01-08T09:22:17.339Z,13.40
2023-01-08T09:32:39.213Z,13.50
2023-01-08T09:43:06.071Z,13.40
2023-01-08T09:53:28.458Z,13.40
2023-01-08T10:03:54.745Z,13.50
2023-01-08T10:14:23.610Z,13.50
2023-01-08T10:24:46.739Z,13.30
2023-01-08T10:35:18.845Z,13.10
2023-01-08T10:56:30.276Z,13.10
2023-01-08T11:06:59.612Z,13.20
2023-01-08T11:17:25.314Z,13.20
2023-01-08T11:27:50.723Z,13.20
2023-01-08T11:38:14.152Z,13.20
2023-01-08T11:49:08.195Z,13.30
2023-01-08T11:59:39.335Z,13.40
2023-01-08T12:10:13.810Z,13.60
2023-01-08T12:20:39.116Z,13.70
2023-01-08T12:31:29.940Z,14.00
2023-01-08T12:41:55.673Z,14.10
2023-01-08T12:52:24.220Z,14.00
2023-01-08T13:02:52.125Z,13.90
2023-01-08T13:13:28.771Z,13.90
2023-01-08T13:24:03.244Z,13.90
2023-01-08T13:34:41.989Z,13.70
2023-01-08T13:45:06.078Z,13.50
2023-01-08T13:55:33.435Z,13.30
2023-01-08T14:06:05.692Z,13.20
2023-01-08T14:16:29.385Z,13.00
2023-01-08T14:26:53.396Z,13.00
2023-01-08T14:37:18.917Z,12.90
2023-01-08T14:47:45.641Z,12.80
2023-01-08T14:58:15.177Z,12.80
2023-01-08T15:08:38.903Z,12.70
2023-01-08T15:19:08.324Z,12.70
2023-01-08T15:29:33.281Z,12.70
2023-01-08T15:39:56.289Z,12.70
2023-01-08T15:50:20.329Z,12.60
2023-01-08T16:00:45.224Z,12.70
2023-01-08T16:11:06.893Z,12.70
2023-01-08T16:21:30.017Z,12.80
2023-01-08T16:31:52.769Z,12.80
2023-01-08T16:42:16.136Z,12.80
2023-01-08T16:52:39.320Z,12.70
2023-01-08T17:03:03.071Z,12.60
2023-01-08T17:13:25.332Z,12.60
2023-01-08T17:23:48.259Z,12.40
2023-01-08T17:34:13.629Z,12.30
2023-01-08T17:44:36.631Z,12.10
2023-01-08T17:54:59.137Z,12.20
2023-01-08T18:05:22.310Z,12.00
2023-01-08T18:15:43.769Z,11.90
2023-01-08T18:26:08.138Z,12.00
2023-01-08T18:36:29.708Z,12.00
2023-01-08T18:46:52.657Z,12.00
2023-01-08T18:57:14.286Z,11.90
2023-01-08T19:07:37.534Z,11.60
2023-01-08T19:18:00.107Z,11.40
2023-01-08T19:28:22.913Z,11.20
2023-01-08T19:38:45.463Z,11.40
2023-01-08T19:49:08.578Z,11.40
2023-01-08T19:59:29.901Z,11.30
2023-01-08T20:09:52.623Z,11.20
2023-01-08T20:20:14.993Z,10.90
2023-01-08T20:30:37.769Z,10.90
2023-01-08T20:40:59.262Z,10.70
2023-01-08T20:51:22.124Z,10.70
2023-01-08T21:01:43.994Z,10.60
2023-01-08T21:12:07.953Z,10.80
2023-01-08T21:22:29.707Z,10.90
2023-01-08T21:32:53.169Z,11.00
2023-01-08T21:43:31.736Z,11.00
2023-01-08T21:53:54.877Z,11.10
2023-01-08T22:04:16.130Z,11.00
2023-01-08T22:14:39.539Z,10.70
2023-01-08T22:25:01.079Z,10.50
2023-01-08T22:35:23.748Z,10.50
2023-01-08T22:45:52.120Z,10.50
2023-01-08T22:56:15.478Z,10.40
2023-01-08T23:06:37.210Z,10.10
2023-01-08T23:17:00.132Z,9.90
2023-01-08T23:27:22.410Z,9.60
2023-01-08T23:37:45.073Z,9.50
2023-01-08T23:48:07.609Z,9.40
2023-01-08T23:58:30.851Z,9.30
